sensor_id;sensor_type;location;lat;lon;timestamp;pressure;altitude;pressure_sealevel;temperature;humidity
84267;BME280;74414;51.098;13.716;2023-12-07T00:00:59;100120.88;;;0.86;84.38
84267;BME280;74414;51.098;13.716;2023-12-07T00:03:25;100117.34;;;0.86;84.61
84267;BME280;74414;51.098;13.716;2023-12-07T00:05:50;100120.88;;;0.86;84.00
84267;BME280;74414;51.098;13.716;2023-12-07T00:08:15;100115.44;;;0.86;83.96
84267;BME280;74414;51.098;13.716;2023-12-07T00:10:41;100115.44;;;0.86;84.00
84267;BME280;74414;51.098;13.716;2023-12-07T00:13:06;100118.34;;;0.90;84.07
84267;BME280;74414;51.098;13.716;2023-12-07T00:15:31;100125.41;;;0.91;84.22
84267;BME280;74414;51.098;13.716;2023-12-07T00:17:56;100122.19;;;0.89;83.78
84267;BME280;74414;51.098;13.716;2023-12-07T00:20:22;100126.84;;;0.88;84.30
84267;BME280;74414;51.098;13.716;2023-12-07T00:22:47;100124.19;;;0.83;84.02
84267;BME280;74414;51.098;13.716;2023-12-07T00:25:13;100132.56;;;0.87;84.23
84267;BME280;74414;51.098;13.716;2023-12-07T00:27:39;100132.69;;;0.82;84.59
84267;BME280;74414;51.098;13.716;2023-12-07T00:30:05;100131.34;;;0.79;84.12
84267;BME280;74414;51.098;13.716;2023-12-07T00:32:30;100127.53;;;0.80;84.60
84267;BME280;74414;51.098;13.716;2023-12-07T00:34:56;100124.00;;;0.80;84.38
84267;BME280;74414;51.098;13.716;2023-12-07T00:37:21;100123.69;;;0.81;84.01
84267;BME280;74414;51.098;13.716;2023-12-07T00:39:46;100123.31;;;0.88;84.38
84267;BME280;74414;51.098;13.716;2023-12-07T00:42:12;100120.88;;;0.86;84.20
84267;BME280;74414;51.098;13.716;2023-12-07T00:44:41;100117.34;;;0.86;83.87
84267;BME280;74414;51.098;13.716;2023-12-07T00:47:06;100118.66;;;0.88;84.56
84267;BME280;74414;51.098;13.716;2023-12-07T00:49:32;100114.31;;;0.87;84.01
84267;BME280;74414;51.098;13.716;2023-12-07T00:51:58;100114.31;;;0.87;84.44
84267;BME280;74414;51.098;13.716;2023-12-07T00:54:23;100109.38;;;0.89;83.98
84267;BME280;74414;51.098;13.716;2023-12-07T00:56:48;100116.72;;;0.89;84.26
84267;BME280;74414;51.098;13.716;2023-12-07T00:59:14;100122.88;;;0.94;84.46
84267;BME280;74414;51.098;13.716;2023-12-07T01:01:40;100117.94;;;0.97;84.21
84267;BME280;74414;51.098;13.716;2023-12-07T01:04:05;100128.13;;;0.91;83.75
84267;BME280;74414;51.098;13.716;2023-12-07T01:06:31;100133.00;;;0.94;83.77
84267;BME280;74414;51.098;13.716;2023-12-07T01:08:57;100140.56;;;0.97;84.03
84267;BME280;74414;51.098;13.716;2023-12-07T01:11:22;100146.84;;;0.98;84.26
84267;BME280;74414;51.098;13.716;2023-12-07T01:13:48;100146.53;;;0.99;84.29
84267;BME280;74414;51.098;13.716;2023-12-07T01:16:13;100156.63;;;0.99;84.51
84267;BME280;74414;51.098;13.716;2023-12-07T01:18:38;100154.13;;;1.02;84.22
84267;BME280;74414;51.098;13.716;2023-12-07T01:21:04;100150.59;;;1.02;84.11
84267;BME280;74414;51.098;13.716;2023-12-07T01:23:30;100151.41;;;1.02;84.22
84267;BME280;74414;51.098;13.716;2023-12-07T01:25:55;100160.69;;;1.01;83.99
84267;BME280;74414;51.098;13.716;2023-12-07T01:28:20;100157.44;;;0.99;84.42
84267;BME280;74414;51.098;13.716;2023-12-07T01:30:46;100161.06;;;0.94;83.80
84267;BME280;74414;51.098;13.716;2023-12-07T01:33:12;100164.53;;;1.00;84.00
84267;BME280;74414;51.098;13.716;2023-12-07T01:35:37;100163.09;;;1.03;84.25
84267;BME280;74414;51.098;13.716;2023-12-07T01:38:02;100159.47;;;1.07;83.96
84267;BME280;74414;51.098;13.716;2023-12-07T01:40:27;100164.22;;;1.02;83.72
84267;BME280;74414;51.098;13.716;2023-12-07T01:42:53;100172.69;;;1.00;83.48
84267;BME280;74414;51.098;13.716;2023-12-07T01:45:19;100171.28;;;1.03;84.22
84267;BME280;74414;51.098;13.716;2023-12-07T01:47:45;100173.13;;;1.07;83.99
84267;BME280;74414;51.098;13.716;2023-12-07T01:50:13;100172.59;;;1.05;83.65
84267;BME280;74414;51.098;13.716;2023-12-07T01:52:47;100171.47;;;1.06;83.92
84267;BME280;74414;51.098;13.716;2023-12-07T01:55:14;100173.41;;;1.06;83.95
84267;BME280;74414;51.098;13.716;2023-12-07T01:57:41;100184.13;;;1.02;83.80
84267;BME280;74414;51.098;13.716;2023-12-07T02:00:08;100179.75;;;1.01;83.81
84267;BME280;74414;51.098;13.716;2023-12-07T02:02:34;100171.78;;;1.05;84.34
84267;BME280;74414;51.098;13.716;2023-12-07T02:05:01;100168.75;;;1.06;84.27
84267;BME280;74414;51.098;13.716;2023-12-07T02:07:27;100182.69;;;1.05;84.02
84267;BME280;74414;51.098;13.716;2023-12-07T02:09:53;100179.97;;;1.05;84.00
84267;BME280;74414;51.098;13.716;2023-12-07T02:12:18;100177.25;;;1.05;84.02
84267;BME280;74414;51.098;13.716;2023-12-07T02:14:45;100181.19;;;1.12;84.19
84267;BME280;74414;51.098;13.716;2023-12-07T02:17:51;100197.28;;;1.14;83.91
84267;BME280;74414;51.098;13.716;2023-12-07T02:20:39;100193.72;;;1.13;83.93
84267;BME280;74414;51.098;13.716;2023-12-07T02:23:07;100191.31;;;1.12;84.08
84267;BME280;74414;51.098;13.716;2023-12-07T02:25:41;100181.28;;;1.07;83.61
84267;BME280;74414;51.098;13.716;2023-12-07T02:28:10;100191.81;;;1.14;83.90
84267;BME280;74414;51.098;13.716;2023-12-07T02:30:36;100191.81;;;1.14;84.12
84267;BME280;74414;51.098;13.716;2023-12-07T02:33:02;100188.59;;;1.12;83.81
84267;BME280;74414;51.098;13.716;2023-12-07T02:35:29;100191.59;;;1.10;84.25
84267;BME280;74414;51.098;13.716;2023-12-07T02:37:55;100187.47;;;1.13;83.68
84267;BME280;74414;51.098;13.716;2023-12-07T02:40:25;100196.25;;;1.10;84.07
84267;BME280;74414;51.098;13.716;2023-12-07T02:42:54;100204.94;;;1.12;83.70
84267;BME280;74414;51.098;13.716;2023-12-07T02:45:21;100206.53;;;1.13;83.83
84267;BME280;74414;51.098;13.716;2023-12-07T02:47:47;100201.91;;;1.13;83.82
84267;BME280;74414;51.098;13.716;2023-12-07T02:50:13;100198.78;;;1.20;84.13
84267;BME280;74414;51.098;13.716;2023-12-07T02:52:39;100205.34;;;1.19;83.54
84267;BME280;74414;51.098;13.716;2023-12-07T02:55:05;100214.41;;;1.14;83.85
84267;BME280;74414;51.098;13.716;2023-12-07T02:57:31;100218.47;;;1.17;83.82
84267;BME280;74414;51.098;13.716;2023-12-07T02:59:59;100220.06;;;1.18;83.94
84267;BME280;74414;51.098;13.716;2023-12-07T03:02:25;100217.28;;;1.23;84.09
84267;BME280;74414;51.098;13.716;2023-12-07T03:04:50;100227.16;;;1.19;83.46
84267;BME280;74414;51.098;13.716;2023-12-07T03:07:16;100217.84;;;1.20;84.25
84267;BME280;74414;51.098;13.716;2023-12-07T03:09:41;100215.66;;;1.22;84.11
84267;BME280;74414;51.098;13.716;2023-12-07T03:12:07;100220.91;;;1.18;83.93
84267;BME280;74414;51.098;13.716;2023-12-07T03:14:32;100228.38;;;1.13;84.47
84267;BME280;74414;51.098;13.716;2023-12-07T03:16:58;100222.09;;;1.12;84.38
84267;BME280;74414;51.098;13.716;2023-12-07T03:19:24;100222.81;;;1.18;84.10
84267;BME280;74414;51.098;13.716;2023-12-07T03:21:49;100226.56;;;1.22;83.66
84267;BME280;74414;51.098;13.716;2023-12-07T03:24:15;100236.44;;;1.18;84.14
84267;BME280;74414;51.098;13.716;2023-12-07T03:26:40;100232.41;;;1.15;83.88
84267;BME280;74414;51.098;13.716;2023-12-07T03:29:06;100233.25;;;1.16;84.08
84267;BME280;74414;51.098;13.716;2023-12-07T03:31:33;100222.53;;;1.19;84.26
84267;BME280;74414;51.098;13.716;2023-12-07T03:33:58;100233.13;;;1.21;83.91
84267;BME280;74414;51.098;13.716;2023-12-07T03:36:24;100232.00;;;1.22;83.87
84267;BME280;74414;51.098;13.716;2023-12-07T03:38:50;100227.69;;;1.21;84.15
84267;BME280;74414;51.098;13.716;2023-12-07T03:41:16;100232.63;;;1.19;84.07
84267;BME280;74414;51.098;13.716;2023-12-07T03:43:41;100234.22;;;1.20;84.23
84267;BME280;74414;51.098;13.716;2023-12-07T03:46:07;100233.13;;;1.21;84.30
84267;BME280;74414;51.098;13.716;2023-12-07T03:48:33;100236.94;;;1.20;84.44
84267;BME280;74414;51.098;13.716;2023-12-07T03:50:59;100234.22;;;1.20;84.17
84267;BME280;74414;51.098;13.716;2023-12-07T03:53:25;100240.81;;;1.19;84.27
84267;BME280;74414;51.098;13.716;2023-12-07T03:55:50;100242.50;;;1.15;84.29
84267;BME280;74414;51.098;13.716;2023-12-07T03:58:16;100244.16;;;1.16;84.54
84267;BME280;74414;51.098;13.716;2023-12-07T04:00:42;100235.16;;;1.15;84.29
84267;BME280;74414;51.098;13.716;2023-12-07T04:03:07;100235.66;;;1.17;84.39
84267;BME280;74414;51.098;13.716;2023-12-07T04:05:33;100240.50;;;1.20;84.56
84267;BME280;74414;51.098;13.716;2023-12-07T04:07:58;100236.44;;;1.18;84.07
84267;BME280;74414;51.098;13.716;2023-12-07T04:10:24;100235.97;;;1.16;84.42
84267;BME280;74414;51.098;13.716;2023-12-07T04:12:49;100239.78;;;1.15;84.65
84267;BME280;74414;51.098;13.716;2023-12-07T04:15:15;100245.13;;;1.20;84.10
84267;BME280;74414;51.098;13.716;2023-12-07T04:17:40;100260.50;;;1.16;84.16
84267;BME280;74414;51.098;13.716;2023-12-07T04:20:06;100252.31;;;1.16;84.11
84267;BME280;74414;51.098;13.716;2023-12-07T04:22:32;100254.44;;;1.19;84.09
84267;BME280;74414;51.098;13.716;2023-12-07T04:24:57;100253.31;;;1.20;83.88
84267;BME280;74414;51.098;13.716;2023-12-07T04:27:23;100252.63;;;1.28;83.80
84267;BME280;74414;51.098;13.716;2023-12-07T04:29:48;100254.06;;;1.25;83.70
84267;BME280;74414;51.098;13.716;2023-12-07T04:32:13;100254.34;;;1.24;83.94
84267;BME280;74414;51.098;13.716;2023-12-07T04:34:39;100259.28;;;1.22;83.89
84267;BME280;74414;51.098;13.716;2023-12-07T04:37:04;100263.66;;;1.23;84.35
84267;BME280;74414;51.098;13.716;2023-12-07T04:39:29;100266.38;;;1.23;84.08
84267;BME280;74414;51.098;13.716;2023-12-07T04:41:55;100275.78;;;1.30;84.51
84267;BME280;74414;51.098;13.716;2023-12-07T04:44:20;100277.91;;;1.33;84.45
84267;BME280;74414;51.098;13.716;2023-12-07T04:46:45;100277.13;;;1.33;84.32
84267;BME280;74414;51.098;13.716;2023-12-07T04:49:11;100271.66;;;1.33;84.38
84267;BME280;74414;51.098;13.716;2023-12-07T04:51:36;100277.63;;;1.35;84.40
84267;BME280;74414;51.098;13.716;2023-12-07T04:54:01;100281.97;;;1.36;84.20
84267;BME280;74414;51.098;13.716;2023-12-07T04:56:27;100287.63;;;1.39;84.45
84267;BME280;74414;51.098;13.716;2023-12-07T04:58:52;100281.97;;;1.36;84.59
84267;BME280;74414;51.098;13.716;2023-12-07T05:01:17;100283.75;;;1.27;84.46
84267;BME280;74414;51.098;13.716;2023-12-07T05:03:44;100284.97;;;1.21;84.34
84267;BME280;74414;51.098;13.716;2023-12-07T05:06:09;100291.44;;;1.25;84.48
84267;BME280;74414;51.098;13.716;2023-12-07T05:08:35;100285.88;;;1.30;84.45
84267;BME280;74414;51.098;13.716;2023-12-07T05:11:00;100285.81;;;1.35;84.87
84267;BME280;74414;51.098;13.716;2023-12-07T05:13:25;100286.31;;;1.37;84.38
84267;BME280;74414;51.098;13.716;2023-12-07T05:15:51;100295.81;;;1.39;84.59
84267;BME280;74414;51.098;13.716;2023-12-07T05:18:16;100294.41;;;1.42;84.47
84267;BME280;74414;51.098;13.716;2023-12-07T05:20:41;100291.97;;;1.40;84.73
84267;BME280;74414;51.098;13.716;2023-12-07T05:23:08;100293.78;;;1.45;84.41
84267;BME280;74414;51.098;13.716;2023-12-07T05:25:33;100297.03;;;1.47;84.53
84267;BME280;74414;51.098;13.716;2023-12-07T05:27:58;100294.09;;;1.43;84.45
84267;BME280;74414;51.098;13.716;2023-12-07T05:30:24;100296.13;;;1.38;84.12
84267;BME280;74414;51.098;13.716;2023-12-07T05:32:49;100293.91;;;1.40;84.12
84267;BME280;74414;51.098;13.716;2023-12-07T05:35:15;100296.44;;;1.50;84.24
84267;BME280;74414;51.098;13.716;2023-12-07T05:37:41;100301.69;;;1.46;84.39
84267;BME280;74414;51.098;13.716;2023-12-07T05:40:06;100309.59;;;1.48;84.68
84267;BME280;74414;51.098;13.716;2023-12-07T05:42:32;100311.91;;;1.54;84.35
84267;BME280;74414;51.098;13.716;2023-12-07T05:44:58;100311.13;;;1.54;84.20
84267;BME280;74414;51.098;13.716;2023-12-07T05:47:24;100322.03;;;1.54;84.12
84267;BME280;74414;51.098;13.716;2023-12-07T05:49:50;100311.31;;;1.57;84.08
84267;BME280;74414;51.098;13.716;2023-12-07T05:52:15;100311.00;;;1.59;84.24
84267;BME280;74414;51.098;13.716;2023-12-07T05:54:41;100308.47;;;1.62;83.99
84267;BME280;74414;51.098;13.716;2023-12-07T05:57:08;100316.66;;;1.62;84.21
84267;BME280;74414;51.098;13.716;2023-12-07T05:59:37;100312.13;;;1.58;84.31
84267;BME280;74414;51.098;13.716;2023-12-07T06:02:03;100308.78;;;1.61;84.04
84267;BME280;74414;51.098;13.716;2023-12-07T06:04:29;100313.88;;;1.67;84.14
84267;BME280;74414;51.098;13.716;2023-12-07T06:06:55;100321.44;;;1.70;83.65
84267;BME280;74414;51.098;13.716;2023-12-07T06:09:20;100310.84;;;1.69;83.46
84267;BME280;74414;51.098;13.716;2023-12-07T06:11:46;100311.41;;;1.66;83.51
84267;BME280;74414;51.098;13.716;2023-12-07T06:14:11;100320.41;;;1.66;83.97
84267;BME280;74414;51.098;13.716;2023-12-07T06:16:36;100322.44;;;1.61;83.82
84267;BME280;74414;51.098;13.716;2023-12-07T06:19:02;100326.56;;;1.58;83.91
84267;BME280;74414;51.098;13.716;2023-12-07T06:21:28;100326.28;;;1.60;84.11
84267;BME280;74414;51.098;13.716;2023-12-07T06:23:55;100330.53;;;1.66;83.64
84267;BME280;74414;51.098;13.716;2023-12-07T06:26:21;100333.56;;;1.64;83.58
84267;BME280;74414;51.098;13.716;2023-12-07T06:28:47;100336.59;;;1.63;83.48
84267;BME280;74414;51.098;13.716;2023-12-07T06:31:12;100338.50;;;1.62;83.74
84267;BME280;74414;51.098;13.716;2023-12-07T06:33:40;100341.53;;;1.61;83.81
84267;BME280;74414;51.098;13.716;2023-12-07T06:36:06;100338.81;;;1.61;83.81
84267;BME280;74414;51.098;13.716;2023-12-07T06:38:32;100340.44;;;1.62;83.90
84267;BME280;74414;51.098;13.716;2023-12-07T06:40:57;100343.75;;;1.59;83.77
84267;BME280;74414;51.098;13.716;2023-12-07T06:43:23;100343.75;;;1.59;84.23
84267;BME280;74414;51.098;13.716;2023-12-07T06:45:48;100344.28;;;1.61;84.05
84267;BME280;74414;51.098;13.716;2023-12-07T06:48:13;100345.09;;;1.61;84.43
84267;BME280;74414;51.098;13.716;2023-12-07T06:50:39;100351.09;;;1.77;84.13
84267;BME280;74414;51.098;13.716;2023-12-07T06:53:04;100344.91;;;1.71;83.80
84267;BME280;74414;51.098;13.716;2023-12-07T06:55:29;100358.06;;;1.69;84.11
84267;BME280;74414;51.098;13.716;2023-12-07T06:57:55;100349.56;;;1.71;84.30
84267;BME280;74414;51.098;13.716;2023-12-07T07:00:21;100355.22;;;1.74;84.02
84267;BME280;74414;51.098;13.716;2023-12-07T07:02:46;100359.84;;;1.74;83.87
84267;BME280;74414;51.098;13.716;2023-12-07T07:05:12;100362.31;;;1.75;83.80
84267;BME280;74414;51.098;13.716;2023-12-07T07:07:37;100357.84;;;1.79;83.95
84267;BME280;74414;51.098;13.716;2023-12-07T07:10:03;100355.72;;;1.76;84.04
84267;BME280;74414;51.098;13.716;2023-12-07T07:12:29;100361.28;;;1.71;83.26
84267;BME280;74414;51.098;13.716;2023-12-07T07:14:54;100358.84;;;1.70;83.50
84267;BME280;74414;51.098;13.716;2023-12-07T07:17:20;100355.59;;;1.68;83.43
84267;BME280;74414;51.098;13.716;2023-12-07T07:19:45;100359.84;;;1.74;83.75
84267;BME280;74414;51.098;13.716;2023-12-07T07:22:10;100364.94;;;1.80;83.79
84267;BME280;74414;51.098;13.716;2023-12-07T07:24:36;100359.19;;;1.82;83.58
84267;BME280;74414;51.098;13.716;2023-12-07T07:27:01;100359.69;;;1.84;83.59
84267;BME280;74414;51.098;13.716;2023-12-07T07:29:26;100361.22;;;1.90;83.63
84267;BME280;74414;51.098;13.716;2023-12-07T07:31:52;100365.38;;;2.01;83.25
84267;BME280;74414;51.098;13.716;2023-12-07T07:34:18;100365.56;;;1.91;82.66
84267;BME280;74414;51.098;13.716;2023-12-07T07:36:43;100366.38;;;1.92;82.90
84267;BME280;74414;51.098;13.716;2023-12-07T07:39:08;100362.53;;;1.93;83.05
84267;BME280;74414;51.098;13.716;2023-12-07T07:41:37;100364.97;;;1.94;83.37
84267;BME280;74414;51.098;13.716;2023-12-07T07:44:02;100369.81;;;1.97;83.27
84267;BME280;74414;51.098;13.716;2023-12-07T07:46:28;100370.81;;;2.01;83.38
84267;BME280;74414;51.098;13.716;2023-12-07T07:48:53;100357.69;;;2.03;83.25
84267;BME280;74414;51.098;13.716;2023-12-07T07:51:18;100364.47;;;2.06;82.90
84267;BME280;74414;51.098;13.716;2023-12-07T07:53:44;100365.81;;;2.08;83.28
84267;BME280;74414;51.098;13.716;2023-12-07T07:56:09;100372.25;;;2.12;82.98
84267;BME280;74414;51.098;13.716;2023-12-07T07:58:34;100362.75;;;2.10;82.86
84267;BME280;74414;51.098;13.716;2023-12-07T08:01:00;100374.78;;;2.09;82.65
84267;BME280;74414;51.098;13.716;2023-12-07T08:03:25;100376.63;;;2.13;82.80
84267;BME280;74414;51.098;13.716;2023-12-07T08:05:50;100377.50;;;2.09;82.21
84267;BME280;74414;51.098;13.716;2023-12-07T08:08:16;100374.38;;;2.15;81.98
84267;BME280;74414;51.098;13.716;2023-12-07T08:10:41;100372.69;;;2.19;81.96
84267;BME280;74414;51.098;13.716;2023-12-07T08:13:06;100367.22;;;2.19;81.70
84267;BME280;74414;51.098;13.716;2023-12-07T08:15:33;100375.50;;;2.14;81.76
84267;BME280;74414;51.098;13.716;2023-12-07T08:17:59;100378.72;;;2.16;82.03
84267;BME280;74414;51.098;13.716;2023-12-07T08:20:24;100375.81;;;2.26;81.71
84267;BME280;74414;51.098;13.716;2023-12-07T08:22:50;100382.06;;;2.13;81.11
84267;BME280;74414;51.098;13.716;2023-12-07T08:25:15;100377.63;;;2.17;81.19
84267;BME280;74414;51.098;13.716;2023-12-07T08:27:42;100376.50;;;2.18;81.11
84267;BME280;74414;51.098;13.716;2023-12-07T08:30:10;100381.47;;;2.16;81.00
84267;BME280;74414;51.098;13.716;2023-12-07T08:32:36;100378.72;;;2.03;81.44
84267;BME280;74414;51.098;13.716;2023-12-07T08:35:02;100390.47;;;2.03;81.60
84267;BME280;74414;51.098;13.716;2023-12-07T08:37:27;100393.13;;;2.08;81.48
84267;BME280;74414;51.098;13.716;2023-12-07T08:39:53;100386.72;;;2.13;81.31
84267;BME280;74414;51.098;13.716;2023-12-07T08:42:19;100387.84;;;2.12;81.40
84267;BME280;74414;51.098;13.716;2023-12-07T08:44:44;100392.19;;;2.26;81.72
84267;BME280;74414;51.098;13.716;2023-12-07T08:47:10;100391.69;;;2.24;81.44
84267;BME280;74414;51.098;13.716;2023-12-07T08:49:35;100390.16;;;2.18;80.98
84267;BME280;74414;51.098;13.716;2023-12-07T08:52:01;100402.81;;;2.14;81.67
84267;BME280;74414;51.098;13.716;2023-12-07T08:54:26;100407.28;;;2.37;81.05
84267;BME280;74414;51.098;13.716;2023-12-07T08:56:51;100410.50;;;2.39;80.60
84267;BME280;74414;51.098;13.716;2023-12-07T08:59:17;100404.53;;;2.24;80.79
84267;BME280;74414;51.098;13.716;2023-12-07T09:01:42;100414.34;;;2.11;81.24
84267;BME280;74414;51.098;13.716;2023-12-07T09:04:07;100410.28;;;2.09;81.22
84267;BME280;74414;51.098;13.716;2023-12-07T09:06:33;100409.78;;;2.07;81.82
84267;BME280;74414;51.098;13.716;2023-12-07T09:08:58;100414.97;;;2.08;81.76
84267;BME280;74414;51.098;13.716;2023-12-07T09:11:24;100420.31;;;2.13;81.98
84267;BME280;74414;51.098;13.716;2023-12-07T09:13:49;100416.38;;;2.19;81.76
84267;BME280;74414;51.098;13.716;2023-12-07T09:16:15;100419.22;;;2.28;81.41
84267;BME280;74414;51.098;13.716;2023-12-07T09:18:44;100419.72;;;2.30;81.59
84267;BME280;74414;51.098;13.716;2023-12-07T09:21:12;100419.00;;;2.24;81.21
84267;BME280;74414;51.098;13.716;2023-12-07T09:23:38;100421.34;;;2.31;81.43
84267;BME280;74414;51.098;13.716;2023-12-07T09:26:04;100422.88;;;2.37;81.77
84267;BME280;74414;51.098;13.716;2023-12-07T09:28:29;100424.28;;;2.48;80.51
84267;BME280;74414;51.098;13.716;2023-12-07T09:30:55;100419.22;;;2.41;80.57
84267;BME280;74414;51.098;13.716;2023-12-07T09:33:20;100424.09;;;2.31;80.35
84267;BME280;74414;51.098;13.716;2023-12-07T09:35:45;100418.13;;;2.29;80.97
84267;BME280;74414;51.098;13.716;2023-12-07T09:38:10;100420.84;;;2.42;80.88
84267;BME280;74414;51.098;13.716;2023-12-07T09:40:36;100425.50;;;2.42;80.51
84267;BME280;74414;51.098;13.716;2023-12-07T09:43:02;100431.78;;;2.42;80.29
84267;BME280;74414;51.098;13.716;2023-12-07T09:45:27;100427.13;;;2.43;80.42
84267;BME280;74414;51.098;13.716;2023-12-07T09:47:54;100423.91;;;2.41;81.09
84267;BME280;74414;51.098;13.716;2023-12-07T09:50:21;100422.78;;;2.42;81.03
84267;BME280;74414;51.098;13.716;2023-12-07T09:52:51;100420.94;;;2.37;81.18
84267;BME280;74414;51.098;13.716;2023-12-07T09:55:17;100423.69;;;2.51;80.53
84267;BME280;74414;51.098;13.716;2023-12-07T09:57:43;100420.94;;;2.51;80.60
84267;BME280;74414;51.098;13.716;2023-12-07T10:00:11;100421.44;;;2.39;80.05
84267;BME280;74414;51.098;13.716;2023-12-07T10:02:40;100414.38;;;2.38;80.63
84267;BME280;74414;51.098;13.716;2023-12-07T10:05:13;100416.22;;;2.43;80.61
84267;BME280;74414;51.098;13.716;2023-12-07T10:07:42;100416.91;;;2.35;80.04
84267;BME280;74414;51.098;13.716;2023-12-07T10:10:08;100417.00;;;2.43;80.64
84267;BME280;74414;51.098;13.716;2023-12-07T10:12:44;100420.22;;;2.45;80.76
84267;BME280;74414;51.098;13.716;2023-12-07T10:15:13;100421.25;;;2.49;80.73
84267;BME280;74414;51.098;13.716;2023-12-07T10:17:55;100428.53;;;2.67;79.78
84267;BME280;74414;51.098;13.716;2023-12-07T10:20:27;100424.88;;;2.58;80.43
84267;BME280;74414;51.098;13.716;2023-12-07T10:23:08;100423.78;;;2.46;80.31
84267;BME280;74414;51.098;13.716;2023-12-07T10:25:41;100418.81;;;2.48;80.58
84267;BME280;74414;51.098;13.716;2023-12-07T10:28:07;100415.47;;;2.51;80.98
84267;BME280;74414;51.098;13.716;2023-12-07T10:30:34;100415.78;;;2.49;81.14
84267;BME280;74414;51.098;13.716;2023-12-07T10:32:59;100414.88;;;2.54;80.38
84267;BME280;74414;51.098;13.716;2023-12-07T10:35:25;100413.56;;;2.51;80.86
84267;BME280;74414;51.098;13.716;2023-12-07T10:37:51;100412.97;;;2.41;80.88
84267;BME280;74414;51.098;13.716;2023-12-07T10:40:16;100411.84;;;2.42;80.83
84267;BME280;74414;51.098;13.716;2023-12-07T10:42:42;100406.19;;;2.38;81.24
84267;BME280;74414;51.098;13.716;2023-12-07T10:45:13;100409.41;;;2.40;81.42
84267;BME280;74414;51.098;13.716;2023-12-07T10:47:43;100415.97;;;2.39;81.76
84267;BME280;74414;51.098;13.716;2023-12-07T10:50:10;100407.06;;;2.47;81.52
84267;BME280;74414;51.098;13.716;2023-12-07T10:52:44;100407.00;;;2.39;81.18
84267;BME280;74414;51.098;13.716;2023-12-07T10:55:16;100408.50;;;2.45;81.65
84267;BME280;74414;51.098;13.716;2023-12-07T10:57:42;100396.44;;;2.46;81.28
84267;BME280;74414;51.098;13.716;2023-12-07T11:00:09;100409.22;;;2.50;81.30
84267;BME280;74414;51.098;13.716;2023-12-07T11:02:36;100416.72;;;2.45;81.57
84267;BME280;74414;51.098;13.716;2023-12-07T11:05:03;100413.38;;;2.48;81.19
84267;BME280;74414;51.098;13.716;2023-12-07T11:07:38;100415.19;;;2.25;81.19
84267;BME280;74414;51.098;13.716;2023-12-07T11:10:20;100413.03;;;2.22;81.71
84267;BME280;74414;51.098;13.716;2023-12-07T11:12:55;100406.69;;;2.27;82.16
84267;BME280;74414;51.098;13.716;2023-12-07T11:15:23;100415.47;;;2.24;81.80
84267;BME280;74414;51.098;13.716;2023-12-07T11:17:54;100415.06;;;2.30;81.97
84267;BME280;74414;51.098;13.716;2023-12-07T11:20:21;100409.50;;;2.35;81.75
84267;BME280;74414;51.098;13.716;2023-12-07T11:22:46;100412.22;;;2.35;80.90
84267;BME280;74414;51.098;13.716;2023-12-07T11:25:14;100402.72;;;2.33;80.82
84267;BME280;74414;51.098;13.716;2023-12-07T11:27:40;100406.88;;;2.30;81.43
84267;BME280;74414;51.098;13.716;2023-12-07T11:30:07;100404.97;;;2.31;81.27
84267;BME280;74414;51.098;13.716;2023-12-07T11:32:32;100398.56;;;2.35;81.02
84267;BME280;74414;51.098;13.716;2023-12-07T11:35:04;100407.38;;;2.32;81.15
84267;BME280;74414;51.098;13.716;2023-12-07T11:38:02;100405.88;;;2.40;80.84
84267;BME280;74414;51.098;13.716;2023-12-07T11:40:32;100401.22;;;2.40;81.23
84267;BME280;74414;51.098;13.716;2023-12-07T11:43:00;100397.47;;;2.50;80.32
84267;BME280;74414;51.098;13.716;2023-12-07T11:45:42;100407.38;;;2.46;80.89
84267;BME280;74414;51.098;13.716;2023-12-07T11:48:12;100400.41;;;2.53;80.68
84267;BME280;74414;51.098;13.716;2023-12-07T11:53:23;100399.31;;;2.54;80.52
84267;BME280;74414;51.098;13.716;2023-12-07T11:55:49;100399.38;;;2.49;80.55
84267;BME280;74414;51.098;13.716;2023-12-07T11:58:15;100397.97;;;2.52;79.90
84267;BME280;74414;51.098;13.716;2023-12-07T12:00:40;100396.66;;;2.49;80.39
84267;BME280;74414;51.098;13.716;2023-12-07T12:03:06;100407.69;;;2.44;80.53
84267;BME280;74414;51.098;13.716;2023-12-07T12:05:31;100401.22;;;2.40;80.80
84267;BME280;74414;51.098;13.716;2023-12-07T12:07:56;100412.84;;;2.46;80.76
84267;BME280;74414;51.098;13.716;2023-12-07T12:10:22;100409.22;;;2.37;81.02
84267;BME280;74414;51.098;13.716;2023-12-07T12:12:50;100405.28;;;2.43;80.58
84267;BME280;74414;51.098;13.716;2023-12-07T12:15:16;100403.84;;;2.45;80.33
84267;BME280;74414;51.098;13.716;2023-12-07T12:17:42;100400.19;;;2.36;80.44
84267;BME280;74414;51.098;13.716;2023-12-07T12:20:09;100403.84;;;2.45;80.43
84267;BME280;74414;51.098;13.716;2023-12-07T12:22:38;100403.25;;;2.48;80.32
84267;BME280;74414;51.098;13.716;2023-12-07T12:25:04;100399.31;;;2.54;80.54
84267;BME280;74414;51.098;13.716;2023-12-07T12:27:30;100406.28;;;2.33;80.53
84267;BME280;74414;51.098;13.716;2023-12-07T12:29:56;100396.56;;;2.27;80.73
84267;BME280;74414;51.098;13.716;2023-12-07T12:32:21;100387.03;;;2.38;80.85
84267;BME280;74414;51.098;13.716;2023-12-07T12:34:51;100392.63;;;2.33;80.33
84267;BME280;74414;51.098;13.716;2023-12-07T12:37:16;100390.09;;;2.23;80.71
84267;BME280;74414;51.098;13.716;2023-12-07T12:39:41;100390.16;;;2.18;80.97
84267;BME280;74414;51.098;13.716;2023-12-07T12:42:07;100384.50;;;2.15;81.30
84267;BME280;74414;51.098;13.716;2023-12-07T12:44:32;100385.81;;;2.17;81.30
84267;BME280;74414;51.098;13.716;2023-12-07T12:46:58;100387.66;;;2.22;80.95
84267;BME280;74414;51.098;13.716;2023-12-07T12:49:34;100384.81;;;2.13;81.22